Time;durP1;ratioP1;P1;durP2;ratioP2;P2;SDS_P1;SDS_P2;PMS_P1;PMS_P2;Temp;Humidity;BMP_temperature;BMP_pressure;BME280_temperature;BME280_humidity;BME280_pressure;Samples;Min_cycle;Max_cycle;Signal;HPM_P1;HPM_P2
2021/06/07 00:00:34;;;;;;;21.60;19.00;;;17.50;99.90;;;;;;4991228;28;20171;-59
2021/06/07 00:02:59;;;;;;;20.30;18.10;;;17.50;99.90;;;;;;4994012;28;20179;-59
2021/06/07 00:05:25;;;;;;;23.60;18.93;;;17.50;99.90;;;;;;5004252;28;20218;-59
2021/06/07 00:07:51;;;;;;;21.60;18.93;;;17.40;99.90;;;;;;4996778;28;20199;-58
2021/06/07 00:10:18;;;;;;;23.00;19.38;;;17.30;99.90;;;;;;4993555;28;20191;-58
2021/06/07 00:12:44;;;;;;;24.08;19.05;;;17.30;99.90;;;;;;5003106;28;20314;-58
2021/06/07 00:15:14;;;;;;;23.17;19.65;;;17.30;99.90;;;;;;4995382;28;20211;-59
2021/06/07 00:17:41;;;;;;;21.80;18.42;;;17.30;99.90;;;;;;4989052;28;20192;-59
2021/06/07 00:20:13;;;;;;;21.58;17.77;;;17.40;99.90;;;;;;4991135;28;20326;-59
2021/06/07 00:22:39;;;;;;;21.10;18.90;;;17.40;99.90;;;;;;4990892;28;20278;-59
2021/06/07 00:25:09;;;;;;;24.17;20.37;;;17.60;99.90;;;;;;4996982;28;20325;-59
2021/06/07 00:27:35;;;;;;;23.73;19.42;;;17.50;99.90;;;;;;4987854;28;20528;-58
2021/06/07 00:30:02;;;;;;;25.23;19.02;;;17.40;99.90;;;;;;4994311;28;20180;-58
2021/06/07 00:32:28;;;;;;;22.70;18.15;;;17.60;99.90;;;;;;4999172;28;20203;-58
2021/06/07 00:34:53;;;;;;;22.03;19.43;;;17.60;99.90;;;;;;4986289;28;20555;-59
2021/06/07 00:37:19;;;;;;;22.83;18.97;;;17.60;99.90;;;;;;4999019;28;20213;-58
2021/06/07 00:39:45;;;;;;;22.47;18.20;;;17.30;99.90;;;;;;4997750;28;20185;-58
2021/06/07 00:42:11;;;;;;;21.92;18.45;;;17.30;99.90;;;;;;4998975;28;20192;-58
2021/06/07 00:44:39;;;;;;;21.40;19.10;;;17.40;99.90;;;;;;4997136;28;20246;-59
2021/06/07 00:47:05;;;;;;;26.08;19.80;;;17.40;99.90;;;;;;4990473;28;20895;-58
2021/06/07 00:49:30;;;;;;;22.10;18.27;;;17.40;99.90;;;;;;4989162;28;20191;-58
2021/06/07 00:51:56;;;;;;;24.40;19.47;;;17.50;99.90;;;;;;4996104;28;20474;-59
2021/06/07 00:54:22;;;;;;;23.50;19.30;;;17.40;99.90;;;;;;4993852;28;20299;-58
2021/06/07 00:56:47;;;;;;;25.30;20.03;;;17.30;99.90;;;;;;4988209;28;20218;-58
2021/06/07 00:59:14;;;;;;;23.70;18.10;;;17.40;99.90;;;;;;4999350;28;20493;-59
2021/06/07 01:01:40;;;;;;;19.20;17.02;;;17.50;99.90;;;;;;4993392;28;20612;-59
2021/06/07 01:04:06;;;;;;;21.42;18.58;;;17.50;99.90;;;;;;4997508;28;20195;-58
2021/06/07 01:06:32;;;;;;;23.87;20.10;;;17.50;99.90;;;;;;4990426;28;20598;-58
2021/06/07 01:08:58;;;;;;;26.85;19.65;;;17.60;99.90;;;;;;4999667;28;20438;-58
2021/06/07 01:11:25;;;;;;;23.33;18.60;;;17.40;99.90;;;;;;4999836;28;20664;-58
2021/06/07 01:13:52;;;;;;;20.60;17.20;;;17.40;99.90;;;;;;4999286;28;20207;-58
2021/06/07 01:16:19;;;;;;;21.92;18.67;;;17.40;99.90;;;;;;5004443;28;20207;-58
2021/06/07 01:18:45;;;;;;;21.73;18.02;;;17.40;99.90;;;;;;4998604;28;20531;-59
2021/06/07 01:21:17;;;;;;;22.30;18.17;;;17.50;99.90;;;;;;4995157;28;20179;-58
2021/06/07 01:23:45;;;;;;;23.30;18.80;;;17.60;99.90;;;;;;4991367;28;20180;-57
2021/06/07 01:26:12;;;;;;;23.08;18.40;;;17.60;99.90;;;;;;5000531;28;20222;-59
2021/06/07 01:28:39;;;;;;;24.27;19.35;;;17.70;99.90;;;;;;5000672;28;20213;-58
2021/06/07 01:31:05;;;;;;;26.80;18.20;;;17.40;99.90;;;;;;5002438;28;20182;-59
2021/06/07 01:33:32;;;;;;;21.48;17.13;;;17.30;99.90;;;;;;4995775;28;20306;-58
2021/06/07 01:36:00;;;;;;;20.92;18.27;;;17.50;99.90;;;;;;4996074;28;20242;-58
2021/06/07 01:38:27;;;;;;;22.48;17.52;;;17.40;99.90;;;;;;4992206;28;20180;-58
2021/06/07 01:41:01;;;;;;;22.75;19.20;;;17.30;99.90;;;;;;4993645;28;20187;-58
2021/06/07 01:43:31;;;;;;;25.98;19.17;;;17.40;99.90;;;;;;5007590;28;20186;-59
2021/06/07 01:45:57;;;;;;;25.38;18.23;;;17.40;99.90;;;;;;4993710;28;20207;-58
2021/06/07 01:48:24;;;;;;;24.02;19.88;;;17.40;99.90;;;;;;4989327;28;20652;-56
2021/06/07 01:50:52;;;;;;;23.20;18.75;;;17.50;99.90;;;;;;4993371;28;20183;-57
2021/06/07 01:53:19;;;;;;;24.85;17.60;;;17.50;99.90;;;;;;4997823;28;20179;-57
2021/06/07 01:55:47;;;;;;;23.85;16.92;;;17.30;99.90;;;;;;4992342;28;20205;-58
2021/06/07 01:58:15;;;;;;;23.65;18.20;;;17.40;99.90;;;;;;4991218;28;20187;-58
2021/06/07 02:00:46;;;;;;;26.10;19.60;;;17.10;99.90;;;;;;4995760;28;20257;-56
2021/06/07 02:03:15;;;;;;;24.63;19.08;;;17.30;99.90;;;;;;4984312;28;20210;-57
2021/06/07 02:05:43;;;;;;;28.42;19.65;;;17.30;99.90;;;;;;4997787;28;20269;-58
2021/06/07 02:08:12;;;;;;;31.08;20.52;;;17.40;99.90;;;;;;5000420;28;20230;-57
2021/06/07 02:10:41;;;;;;;27.63;20.30;;;17.20;99.90;;;;;;4988098;28;20322;-58
2021/06/07 02:13:08;;;;;;;23.02;19.02;;;17.30;99.90;;;;;;4990571;28;20680;-58
2021/06/07 02:15:34;;;;;;;26.67;18.40;;;17.10;99.90;;;;;;4998963;28;20229;-57
2021/06/07 02:18:02;;;;;;;25.90;19.13;;;17.20;99.90;;;;;;4991367;28;20210;-58
2021/06/07 02:20:28;;;;;;;27.65;19.05;;;17.20;99.90;;;;;;4990326;28;21252;-58
2021/06/07 02:22:54;;;;;;;23.60;18.70;;;17.20;99.90;;;;;;4989150;28;20273;-57
2021/06/07 02:25:21;;;;;;;24.17;19.07;;;17.20;99.90;;;;;;4997753;28;20186;-57
2021/06/07 02:27:48;;;;;;;25.65;20.00;;;17.20;99.90;;;;;;5006674;28;20778;-57
2021/06/07 02:30:21;;;;;;;28.67;20.20;;;17.20;99.90;;;;;;4998941;28;20188;-58
2021/06/07 02:32:48;;;;;;;27.92;19.58;;;17.00;99.90;;;;;;5003640;28;20629;-57
2021/06/07 02:35:18;;;;;;;26.52;19.20;;;17.10;99.90;;;;;;4997613;28;20216;-57
2021/06/07 02:37:45;;;;;;;27.42;19.50;;;17.10;99.90;;;;;;5001287;28;20192;-57
2021/06/07 02:40:12;;;;;;;28.25;22.10;;;17.30;99.90;;;;;;5000581;28;20188;-57
2021/06/07 02:42:41;;;;;;;24.58;18.17;;;17.10;99.90;;;;;;4984932;28;20176;-58
2021/06/07 02:45:11;;;;;;;30.08;21.48;;;17.10;99.90;;;;;;4982855;28;20300;-56
2021/06/07 02:47:39;;;;;;;25.50;19.25;;;17.10;99.90;;;;;;5003807;28;20179;-56
2021/06/07 02:50:09;;;;;;;25.63;19.20;;;17.30;99.90;;;;;;4996999;28;20205;-58
2021/06/07 02:52:34;;;;;;;26.90;19.65;;;17.20;99.90;;;;;;4992436;28;20184;-58
2021/06/07 02:55:00;;;;;;;23.23;18.03;;;17.40;99.90;;;;;;4981712;28;20215;-57
2021/06/07 02:57:26;;;;;;;26.63;20.08;;;17.40;99.90;;;;;;4997472;28;20290;-56
2021/06/07 02:59:52;;;;;;;24.07;19.27;;;17.10;99.90;;;;;;5003545;28;20269;-57
2021/06/07 03:02:18;;;;;;;26.47;20.30;;;16.70;99.90;;;;;;5002630;28;20461;-56
2021/06/07 03:04:43;;;;;;;28.10;20.53;;;17.10;99.90;;;;;;4999402;28;20195;-57
2021/06/07 03:07:09;;;;;;;26.60;20.30;;;17.10;99.90;;;;;;4999991;28;20223;-57
2021/06/07 03:09:34;;;;;;;26.10;21.37;;;17.30;99.90;;;;;;5000081;28;20194;-57
2021/06/07 03:12:02;;;;;;;28.47;21.23;;;17.00;99.90;;;;;;4989769;28;20211;-58
2021/06/07 03:14:28;;;;;;;29.90;20.77;;;17.30;99.90;;;;;;4989696;28;20317;-57
2021/06/07 03:16:54;;;;;;;31.30;22.27;;;17.00;99.90;;;;;;4996657;28;20282;-57
2021/06/07 03:19:20;;;;;;;27.80;21.60;;;17.10;99.90;;;;;;4995542;28;20438;-57
2021/06/07 03:21:45;;;;;;;29.60;20.33;;;17.10;99.90;;;;;;4993603;28;20631;-58
2021/06/07 03:24:11;;;;;;;33.10;21.70;;;17.20;99.90;;;;;;4999386;28;20194;-57
2021/06/07 03:26:36;;;;;;;31.50;21.13;;;17.10;99.90;;;;;;4989803;28;20215;-57
2021/06/07 03:29:03;;;;;;;29.87;20.50;;;17.20;99.90;;;;;;5003146;28;20722;-58
2021/06/07 03:31:28;;;;;;;32.75;21.27;;;17.40;99.90;;;;;;4999830;28;20188;-58
2021/06/07 03:33:54;;;;;;;25.67;19.90;;;17.50;99.90;;;;;;4993158;28;20207;-57
2021/06/07 03:36:22;;;;;;;36.33;20.27;;;17.30;99.90;;;;;;4990079;28;20230;-57
2021/06/07 03:38:47;;;;;;;27.27;19.80;;;17.10;99.90;;;;;;4989014;28;20183;-57
2021/06/07 03:41:13;;;;;;;29.93;21.30;;;17.40;99.90;;;;;;4997047;28;20183;-58
2021/06/07 03:43:39;;;;;;;31.50;22.03;;;17.10;99.90;;;;;;4989771;28;20196;-57
2021/06/07 03:46:06;;;;;;;29.17;21.67;;;17.30;99.90;;;;;;4988777;28;20485;-58
2021/06/07 03:48:32;;;;;;;33.55;23.52;;;17.30;99.90;;;;;;4994413;28;20202;-58
2021/06/07 03:50:58;;;;;;;34.17;24.47;;;17.10;99.90;;;;;;4992702;28;20178;-58
2021/06/07 03:53:24;;;;;;;29.85;20.30;;;16.90;99.90;;;;;;4995985;28;20446;-59
2021/06/07 03:55:50;;;;;;;29.60;20.90;;;17.00;99.90;;;;;;5007569;28;20214;-59
2021/06/07 03:58:16;;;;;;;32.60;21.97;;;17.00;99.90;;;;;;5002812;28;20438;-58
2021/06/07 04:00:42;;;;;;;30.27;21.73;;;17.20;99.90;;;;;;4998864;28;20535;-58
2021/06/07 04:03:10;;;;;;;28.77;21.87;;;17.10;99.90;;;;;;4988897;28;20183;-58
2021/06/07 04:05:37;;;;;;;31.27;21.45;;;17.40;99.90;;;;;;4987557;28;20540;-59
2021/06/07 04:08:05;;;;;;;31.73;21.25;;;17.20;99.90;;;;;;4996165;28;20661;-59
2021/06/07 04:10:31;;;;;;;29.60;22.20;;;17.20;99.90;;;;;;4986252;28;20667;-58
2021/06/07 04:12:56;;;;;;;27.50;19.43;;;17.30;99.90;;;;;;5002738;28;20191;-58
2021/06/07 04:15:25;;;;;;;29.80;21.77;;;17.30;99.90;;;;;;4986265;28;20211;-60
2021/06/07 04:17:51;;;;;;;27.10;20.35;;;17.10;99.90;;;;;;4982385;28;20175;-59
2021/06/07 04:20:20;;;;;;;30.13;20.70;;;17.10;99.90;;;;;;4982074;28;20183;-58
2021/06/07 04:22:46;;;;;;;26.92;21.77;;;17.00;99.90;;;;;;4984562;28;20694;-56
2021/06/07 04:25:14;;;;;;;28.73;22.30;;;17.10;99.90;;;;;;4988352;28;20203;-56
2021/06/07 04:27:40;;;;;;;29.17;22.13;;;17.00;99.90;;;;;;5000710;28;20668;-58
2021/06/07 04:30:08;;;;;;;29.17;21.60;;;17.30;99.90;;;;;;4984708;28;20286;-58
2021/06/07 04:32:34;;;;;;;32.30;23.05;;;17.20;99.90;;;;;;4985071;28;20665;-58
2021/06/07 04:35:00;;;;;;;27.60;21.52;;;17.20;99.90;;;;;;4985092;28;21562;-57
2021/06/07 04:37:28;;;;;;;25.48;20.70;;;17.00;99.90;;;;;;4988411;28;20200;-57
2021/06/07 04:39:53;;;;;;;26.13;20.00;;;17.00;99.90;;;;;;4986511;28;20196;-59
2021/06/07 04:42:19;;;;;;;27.97;21.33;;;17.20;99.90;;;;;;4983822;28;20175;-59
2021/06/07 04:44:45;;;;;;;28.03;20.07;;;17.10;99.90;;;;;;4988149;28;20265;-59
2021/06/07 04:47:11;;;;;;;30.48;20.70;;;17.30;99.90;;;;;;4988874;28;20326;-59
2021/06/07 04:49:36;;;;;;;28.10;19.40;;;17.30;99.90;;;;;;4985454;28;20489;-57
2021/06/07 04:52:03;;;;;;;28.37;20.93;;;17.20;99.90;;;;;;4988642;28;20669;-58
2021/06/07 04:54:28;;;;;;;32.05;21.27;;;17.20;99.90;;;;;;5000673;28;20203;-56
2021/06/07 04:56:54;;;;;;;29.07;21.10;;;16.70;99.90;;;;;;4988195;28;20205;-58
2021/06/07 04:59:20;;;;;;;29.17;20.10;;;17.10;99.90;;;;;;4985255;28;20279;-57
2021/06/07 05:01:45;;;;;;;31.70;20.80;;;17.20;99.90;;;;;;4991735;28;20657;-57
2021/06/07 05:04:11;;;;;;;30.67;20.23;;;17.40;99.90;;;;;;4985460;28;20183;-57
2021/06/07 05:06:37;;;;;;;29.50;20.57;;;17.40;99.90;;;;;;4987063;28;20611;-57
2021/06/07 05:09:03;;;;;;;26.73;21.23;;;17.30;99.90;;;;;;4985757;28;20196;-56
2021/06/07 05:11:29;;;;;;;26.75;19.52;;;17.30;99.90;;;;;;4988965;28;20322;-57
2021/06/07 05:13:54;;;;;;;27.77;19.93;;;17.40;99.90;;;;;;4986860;28;20294;-57
2021/06/07 05:16:20;;;;;;;26.93;19.67;;;17.30;99.90;;;;;;4988132;28;20685;-57
2021/06/07 05:18:46;;;;;;;25.77;19.27;;;17.30;99.90;;;;;;4985970;28;20191;-60
2021/06/07 05:21:13;;;;;;;27.83;19.57;;;17.20;99.90;;;;;;4989335;28;20190;-60
2021/06/07 05:23:38;;;;;;;26.92;20.45;;;17.10;99.90;;;;;;4988483;28;20190;-59
2021/06/07 05:26:04;;;;;;;27.13;19.70;;;17.00;99.90;;;;;;4984890;28;20204;-58
2021/06/07 05:28:30;;;;;;;28.10;20.90;;;17.50;99.90;;;;;;4985138;28;20435;-57
2021/06/07 05:30:56;;;;;;;28.47;19.73;;;17.50;99.90;;;;;;4985771;28;20326;-58
2021/06/07 05:33:23;;;;;;;27.93;19.40;;;17.40;99.90;;;;;;4987894;28;20465;-58
2021/06/07 05:35:50;;;;;;;26.70;19.73;;;17.60;99.90;;;;;;4986313;28;20575;-58
2021/06/07 05:38:19;;;;;;;28.73;19.70;;;17.50;99.90;;;;;;4984951;28;20175;-57
2021/06/07 05:40:46;;;;;;;29.15;20.48;;;17.60;99.90;;;;;;4985056;28;20214;-57
2021/06/07 05:43:11;;;;;;;31.05;21.23;;;17.60;99.90;;;;;;4984564;28;20251;-58
2021/06/07 05:45:37;;;;;;;24.47;18.60;;;17.30;99.90;;;;;;4983615;28;20697;-58
2021/06/07 05:48:05;;;;;;;26.45;20.67;;;17.20;99.90;;;;;;4986466;28;20193;-57
2021/06/07 05:50:35;;;;;;;24.77;17.95;;;17.50;99.90;;;;;;4990303;28;20198;-58
2021/06/07 05:53:02;;;;;;;23.92;18.60;;;17.40;99.90;;;;;;4988662;28;20195;-57
2021/06/07 05:55:40;;;;;;;23.95;16.80;;;17.50;99.90;;;;;;4989342;28;20218;-58
2021/06/07 05:58:15;;;;;;;26.65;19.92;;;17.50;99.90;;;;;;5001890;28;20167;-58
2021/06/07 06:00:44;;;;;;;24.40;17.92;;;17.50;99.90;;;;;;4990485;28;20200;-57
2021/06/07 06:03:10;;;;;;;23.55;17.63;;;17.40;99.90;;;;;;4989341;28;20274;-56
2021/06/07 06:05:36;;;;;;;25.67;17.85;;;17.50;99.90;;;;;;4986353;28;20199;-58
2021/06/07 06:08:04;;;;;;;24.42;17.90;;;17.40;99.90;;;;;;4988390;28;20182;-58
2021/06/07 06:10:30;;;;;;;22.38;16.63;;;17.50;99.90;;;;;;4990149;28;20211;-57
2021/06/07 06:12:56;;;;;;;23.07;18.53;;;17.60;99.90;;;;;;4984774;28;20191;-58
2021/06/07 06:15:24;;;;;;;24.73;16.37;;;17.40;99.90;;;;;;4989747;28;20255;-58
2021/06/07 06:17:50;;;;;;;27.73;19.55;;;17.40;99.90;;;;;;5006963;28;20184;-58
2021/06/07 06:20:16;;;;;;;23.10;17.80;;;17.40;99.90;;;;;;4984240;28;20189;-57
2021/06/07 06:22:42;;;;;;;26.40;18.92;;;17.40;99.90;;;;;;4989895;28;20202;-58
2021/06/07 06:25:10;;;;;;;27.75;19.35;;;17.50;99.90;;;;;;4994600;28;20182;-59
2021/06/07 06:27:36;;;;;;;23.10;16.52;;;17.50;99.90;;;;;;4997831;28;20226;-59
2021/06/07 06:30:16;;;;;;;23.88;17.98;;;17.60;99.90;;;;;;4988995;28;20188;-59
2021/06/07 06:32:44;;;;;;;23.58;17.17;;;17.50;99.90;;;;;;4995755;28;20206;-60
2021/06/07 06:35:11;;;;;;;20.52;16.98;;;17.60;99.90;;;;;;4990762;28;20303;-62
2021/06/07 06:37:37;;;;;;;23.25;16.20;;;17.40;99.90;;;;;;4996481;28;20188;-58
2021/06/07 06:40:04;;;;;;;25.40;16.83;;;17.50;99.90;;;;;;4998515;28;20191;-58
2021/06/07 06:42:29;;;;;;;21.40;16.65;;;17.50;99.90;;;;;;4993964;28;21034;-58
2021/06/07 06:44:55;;;;;;;23.73;18.70;;;17.50;99.90;;;;;;4988731;28;20202;-59
2021/06/07 06:47:21;;;;;;;22.13;16.87;;;17.40;99.90;;;;;;4995847;28;20245;-59
2021/06/07 06:49:46;;;;;;;22.93;17.60;;;17.50;99.90;;;;;;4989287;28;20665;-59
2021/06/07 06:52:12;;;;;;;22.70;16.17;;;17.60;99.90;;;;;;4990934;28;20446;-59
2021/06/07 06:54:38;;;;;;;21.90;17.67;;;17.60;99.90;;;;;;4991999;28;20696;-58
2021/06/07 06:57:04;;;;;;;25.70;18.03;;;17.70;99.90;;;;;;4985658;28;20685;-58
2021/06/07 06:59:29;;;;;;;25.10;17.23;;;17.50;99.90;;;;;;4989728;28;20805;-60
2021/06/07 07:01:56;;;;;;;21.50;16.63;;;17.60;99.90;;;;;;4983800;28;20489;-59
2021/06/07 07:04:22;;;;;;;28.33;16.83;;;17.60;99.90;;;;;;4990133;28;20189;-61
2021/06/07 07:06:47;;;;;;;21.93;16.13;;;17.60;99.90;;;;;;4991269;28;20202;-60
2021/06/07 07:09:13;;;;;;;24.47;16.70;;;17.40;99.90;;;;;;4998101;28;20270;-60
2021/06/07 07:11:38;;;;;;;23.50;17.10;;;17.60;99.90;;;;;;4986857;28;20190;-59
2021/06/07 07:14:04;;;;;;;19.13;15.20;;;17.60;99.90;;;;;;4985219;28;20206;-61
2021/06/07 07:16:30;;;;;;;20.20;15.47;;;17.60;99.90;;;;;;4992789;28;20215;-61
2021/06/07 07:18:56;;;;;;;17.67;14.82;;;17.60;99.90;;;;;;4987783;28;20183;-61
2021/06/07 07:21:21;;;;;;;18.93;14.73;;;17.70;99.90;;;;;;4989245;28;20193;-58
2021/06/07 07:23:47;;;;;;;18.47;15.43;;;17.60;99.90;;;;;;4991878;28;20190;-57
2021/06/07 07:26:13;;;;;;;20.13;14.30;;;17.70;99.90;;;;;;5000266;28;20307;-58
2021/06/07 07:28:41;;;;;;;21.43;16.23;;;17.70;99.90;;;;;;4993317;28;20442;-57
2021/06/07 07:31:07;;;;;;;19.70;15.68;;;17.80;99.90;;;;;;4988386;28;20206;-57
2021/06/07 07:33:36;;;;;;;20.17;15.25;;;17.70;99.90;;;;;;4988269;28;20257;-58
2021/06/07 07:36:03;;;;;;;17.70;15.50;;;17.70;99.90;;;;;;4995094;28;20313;-61
2021/06/07 07:38:29;;;;;;;20.67;15.57;;;17.80;99.90;;;;;;4989287;28;20203;-60
2021/06/07 07:40:54;;;;;;;19.73;16.23;;;17.80;99.90;;;;;;4988003;28;20214;-59
2021/06/07 07:43:20;;;;;;;18.93;15.63;;;17.90;99.90;;;;;;5000932;28;20187;-57
2021/06/07 07:45:45;;;;;;;19.60;15.80;;;17.80;99.90;;;;;;4986916;28;20211;-57
2021/06/07 07:48:11;;;;;;;18.57;14.83;;;17.90;99.90;;;;;;4995391;28;20187;-61
2021/06/07 07:50:37;;;;;;;20.17;16.27;;;17.90;99.90;;;;;;5001866;28;20183;-59
2021/06/07 07:53:03;;;;;;;19.57;14.20;;;17.70;99.90;;;;;;4993114;28;20199;-59
2021/06/07 07:55:31;;;;;;;16.90;13.50;;;17.70;99.90;;;;;;4995034;28;20912;-60
2021/06/07 07:57:58;;;;;;;15.95;13.00;;;17.90;99.90;;;;;;4987390;28;20181;-60
2021/06/07 08:00:27;;;;;;;19.20;14.63;;;17.90;99.90;;;;;;4992111;28;20219;-60
2021/06/07 08:02:53;;;;;;;17.58;14.35;;;17.90;99.90;;;;;;4992301;28;20579;-60
2021/06/07 08:05:19;;;;;;;19.88;15.18;;;17.90;99.90;;;;;;4994987;28;20241;-59
2021/06/07 08:07:44;;;;;;;17.45;14.30;;;17.70;99.90;;;;;;4989078;28;21267;-58
2021/06/07 08:10:12;;;;;;;18.43;14.27;;;17.90;99.90;;;;;;4991841;28;20211;-59
2021/06/07 08:12:41;;;;;;;16.85;14.20;;;17.90;99.90;;;;;;5000593;28;20180;-59
2021/06/07 08:15:09;;;;;;;13.57;11.93;;;18.00;99.90;;;;;;4986809;28;20632;-58
2021/06/07 08:17:35;;;;;;;14.52;11.50;;;17.80;99.90;;;;;;4990725;28;20222;-57
2021/06/07 08:20:04;;;;;;;13.57;10.90;;;17.90;99.90;;;;;;4997662;28;20180;-58
2021/06/07 08:22:30;;;;;;;13.68;10.45;;;18.00;99.90;;;;;;4993132;28;20184;-59
2021/06/07 08:24:55;;;;;;;11.00;8.97;;;18.10;99.90;;;;;;4993748;28;20190;-58
2021/06/07 08:27:21;;;;;;;11.87;9.23;;;18.20;99.90;;;;;;4991099;28;20219;-61
2021/06/07 08:29:46;;;;;;;11.70;10.17;;;18.20;99.90;;;;;;4993310;28;20234;-60
2021/06/07 08:32:12;;;;;;;10.93;9.63;;;18.30;99.90;;;;;;5000222;28;20822;-61
2021/06/07 08:34:37;;;;;;;11.37;8.50;;;18.30;99.90;;;;;;4991568;28;20203;-59
2021/06/07 08:37:03;;;;;;;9.60;8.40;;;18.40;99.90;;;;;;4988227;28;20287;-59
2021/06/07 08:39:29;;;;;;;9.20;8.30;;;18.50;99.90;;;;;;4998254;28;20185;-59
2021/06/07 08:41:57;;;;;;;10.40;9.00;;;18.60;99.90;;;;;;5005233;28;20457;-60
2021/06/07 08:44:27;;;;;;;8.73;7.93;;;18.60;99.90;;;;;;4988117;28;20182;-59
2021/06/07 08:46:53;;;;;;;8.25;7.50;;;18.60;99.90;;;;;;4991975;28;20590;-58
2021/06/07 08:49:19;;;;;;;9.30;7.45;;;18.50;99.90;;;;;;5000726;28;20195;-60
2021/06/07 08:51:44;;;;;;;7.93;7.20;;;18.60;99.90;;;;;;4991073;28;20176;-58
2021/06/07 08:54:10;;;;;;;9.90;8.73;;;18.60;99.90;;;;;;5015507;28;20324;-56
2021/06/07 08:56:36;;;;;;;9.80;8.80;;;18.60;99.90;;;;;;4991123;28;20465;-60
2021/06/07 08:59:01;;;;;;;9.70;8.33;;;18.50;99.90;;;;;;4992351;28;20197;-56
2021/06/07 09:01:27;;;;;;;9.37;7.90;;;18.60;99.90;;;;;;5002906;28;20188;-58
2021/06/07 09:03:53;;;;;;;11.00;9.30;;;18.80;99.90;;;;;;4997671;28;20533;-58
2021/06/07 09:06:26;;;;;;;11.30;10.20;;;18.70;99.90;;;;;;4991807;28;20264;-59
2021/06/07 09:09:04;;;;;;;11.43;10.20;;;18.90;99.90;;;;;;4985430;28;21065;-60
2021/06/07 09:11:40;;;;;;;12.13;10.73;;;19.00;99.90;;;;;;5005099;28;20401;-60
2021/06/07 09:14:38;;;;;;;12.63;11.38;;;19.00;99.90;;;;;;5001965;28;20244;-59
2021/06/07 09:17:22;;;;;;;13.85;12.40;;;19.00;99.90;;;;;;4996010;28;20271;-62
2021/06/07 09:20:19;;;;;;;14.40;12.45;;;18.80;99.90;;;;;;4992890;28;20188;-60
2021/06/07 09:23:06;;;;;;;14.35;12.10;;;18.80;99.90;;;;;;4990164;28;20193;-60
2021/06/07 09:25:45;;;;;;;15.63;13.25;;;18.60;99.90;;;;;;5009188;28;20265;-58
2021/06/07 09:28:22;;;;;;;15.93;13.05;;;18.50;99.90;;;;;;4994518;28;20183;-57
2021/06/07 09:30:56;;;;;;;16.90;12.90;;;18.70;99.90;;;;;;4991400;28;20193;-60
2021/06/07 09:33:37;;;;;;;15.60;12.52;;;18.80;99.90;;;;;;5006489;28;20205;-62
2021/06/07 09:36:27;;;;;;;14.50;12.73;;;18.90;99.90;;;;;;4991858;28;20213;-62
2021/06/07 09:39:20;;;;;;;15.20;12.70;;;19.00;99.90;;;;;;4987491;28;20702;-61
2021/06/07 09:41:59;;;;;;;17.65;13.05;;;19.00;99.90;;;;;;4992204;28;20182;-60
2021/06/07 09:44:44;;;;;;;15.52;11.55;;;19.00;99.90;;;;;;5000374;28;20205;-60
2021/06/07 09:47:24;;;;;;;16.73;13.55;;;18.90;99.90;;;;;;4993996;28;20228;-59
2021/06/07 09:49:57;;;;;;;18.50;14.30;;;18.90;99.90;;;;;;4984012;28;20179;-60
2021/06/07 09:52:31;;;;;;;16.55;14.85;;;19.00;99.90;;;;;;4991561;28;20202;-59
2021/06/07 09:55:14;;;;;;;18.60;16.60;;;18.80;99.90;;;;;;5003690;28;20212;-60
2021/06/07 09:57:47;;;;;;;14.80;12.52;;;18.90;99.90;;;;;;5001606;28;20177;-60
2021/06/07 10:00:51;;;;;;;15.00;13.40;;;19.10;99.90;;;;;;4999849;28;20202;-59
2021/06/07 10:03:31;;;;;;;14.65;13.25;;;19.00;99.90;;;;;;4986046;28;20273;-60
2021/06/07 10:06:00;;;;;;;14.07;12.60;;;19.00;99.90;;;;;;4985436;28;20209;-59
2021/06/07 10:08:42;;;;;;;14.82;13.30;;;19.00;99.90;;;;;;4991254;28;20204;-61
2021/06/07 10:11:33;;;;;;;15.23;13.73;;;19.10;99.90;;;;;;4990073;28;20212;-60
2021/06/07 10:14:11;;;;;;;14.38;12.88;;;19.10;99.90;;;;;;4992757;28;20196;-59
2021/06/07 10:16:46;;;;;;;16.42;13.80;;;19.00;99.90;;;;;;4980879;28;20205;-59
2021/06/07 10:19:18;;;;;;;14.30;12.68;;;19.10;99.90;;;;;;5005267;28;20189;-60
2021/06/07 10:21:44;;;;;;;16.13;12.50;;;19.30;99.90;;;;;;4988759;28;20193;-59
2021/06/07 10:24:15;;;;;;;14.35;12.30;;;19.40;99.90;;;;;;4992680;28;20550;-59
2021/06/07 10:26:43;;;;;;;14.23;12.20;;;19.40;99.90;;;;;;4990501;28;20562;-59
2021/06/07 10:29:09;;;;;;;13.77;12.13;;;19.50;99.90;;;;;;4990306;28;20737;-60
2021/06/07 10:31:38;;;;;;;13.25;11.85;;;19.70;99.90;;;;;;4995450;28;20190;-60
2021/06/07 10:34:06;;;;;;;13.70;12.02;;;19.70;99.90;;;;;;4988531;28;20310;-60
2021/06/07 10:36:40;;;;;;;17.98;12.50;;;19.60;99.90;;;;;;4994002;28;20210;-61
2021/06/07 10:39:16;;;;;;;15.65;13.02;;;19.60;99.90;;;;;;4993288;28;20178;-61
2021/06/07 10:41:44;;;;;;;16.15;13.82;;;19.60;99.90;;;;;;4985470;28;20206;-60
2021/06/07 10:44:12;;;;;;;14.40;12.98;;;19.60;99.90;;;;;;4998874;28;20268;-59
2021/06/07 10:46:41;;;;;;;14.93;13.43;;;19.70;99.90;;;;;;4992053;28;20763;-58
2021/06/07 10:49:34;;;;;;;15.32;13.73;;;19.80;99.90;;;;;;4994835;28;20458;-58
2021/06/07 10:52:18;;;;;;;16.17;13.82;;;19.80;99.90;;;;;;4988715;28;20679;-58
2021/06/07 10:55:08;;;;;;;15.50;13.90;;;19.90;99.90;;;;;;4993987;28;20717;-57
2021/06/07 10:57:38;;;;;;;12.88;11.40;;;19.90;99.90;;;;;;4983323;28;20186;-58
2021/06/07 11:00:09;;;;;;;14.60;13.10;;;19.90;99.90;;;;;;5000841;28;20181;-59
2021/06/07 11:02:41;;;;;;;14.52;13.13;;;19.60;99.90;;;;;;4999537;28;20492;-59
2021/06/07 11:05:12;;;;;;;14.20;12.75;;;19.60;99.90;;;;;;5002657;28;20663;-59
2021/06/07 11:07:58;;;;;;;14.60;12.95;;;19.50;99.90;;;;;;4988916;28;20183;-58
2021/06/07 11:10:33;;;;;;;13.07;11.23;;;19.60;99.90;;;;;;4984216;28;20271;-59
2021/06/07 11:13:10;;;;;;;13.32;11.95;;;19.70;99.90;;;;;;4987371;28;20257;-59
2021/06/07 11:16:01;;;;;;;14.35;12.85;;;19.70;99.90;;;;;;4995967;28;20732;-56
2021/06/07 11:18:35;;;;;;;13.65;12.35;;;19.80;99.90;;;;;;4980338;28;20202;-57
2021/06/07 11:21:07;;;;;;;13.90;12.40;;;19.80;99.90;;;;;;4992185;28;20171;-59
2021/06/07 11:23:43;;;;;;;14.85;12.55;;;19.80;99.90;;;;;;4988448;28;20182;-59
2021/06/07 11:26:10;;;;;;;13.48;12.07;;;19.90;99.90;;;;;;4986576;28;20755;-59
2021/06/07 11:28:47;;;;;;;17.65;15.93;;;19.90;99.90;;;;;;4989610;28;20183;-58
2021/06/07 11:31:18;;;;;;;12.55;11.35;;;19.90;99.90;;;;;;4987922;28;20201;-59
2021/06/07 11:33:52;;;;;;;15.95;12.43;;;19.90;99.90;;;;;;4989192;28;20196;-57
2021/06/07 11:36:48;;;;;;;13.48;12.02;;;19.70;99.90;;;;;;4993900;28;20400;-61
2021/06/07 11:39:19;;;;;;;14.20;12.90;;;19.50;99.90;;;;;;4988518;28;20270;-57
2021/06/07 11:41:54;;;;;;;15.23;13.65;;;19.60;99.90;;;;;;4990469;28;20238;-57
2021/06/07 11:44:43;;;;;;;16.45;14.70;;;19.60;99.90;;;;;;4991649;28;20835;-58
2021/06/07 11:47:11;;;;;;;15.27;13.50;;;19.40;99.90;;;;;;4995099;28;20219;-59
2021/06/07 11:49:57;;;;;;;19.30;13.32;;;19.60;99.90;;;;;;4988761;28;20288;-56
2021/06/07 11:52:31;;;;;;;16.38;14.77;;;19.60;99.90;;;;;;4988775;28;20286;-61
2021/06/07 11:55:13;;;;;;;15.55;13.43;;;19.70;99.90;;;;;;4981068;28;20205;-58
2021/06/07 11:57:39;;;;;;;14.82;13.15;;;19.90;99.90;;;;;;4995833;28;20183;-58
2021/06/07 12:00:06;;;;;;;17.10;13.10;;;19.90;99.90;;;;;;4972401;28;20190;-58
2021/06/07 12:02:34;;;;;;;14.65;13.15;;;20.10;99.90;;;;;;4980439;28;20191;-58
2021/06/07 12:05:11;;;;;;;17.02;13.50;;;20.20;99.90;;;;;;4978862;28;20194;-57
2021/06/07 12:07:43;;;;;;;15.48;13.85;;;20.10;99.90;;;;;;4971300;28;20644;-57
2021/06/07 12:10:16;;;;;;;15.57;13.93;;;19.90;99.90;;;;;;4979920;28;20656;-57
2021/06/07 12:12:41;;;;;;;12.43;11.32;;;19.80;99.90;;;;;;4979224;28;20897;-57
2021/06/07 12:15:16;;;;;;;13.03;11.73;;;20.00;99.90;;;;;;4971577;28;20217;-57
2021/06/07 12:17:49;;;;;;;14.30;12.90;;;20.00;99.90;;;;;;4980085;28;20815;-57
2021/06/07 12:20:19;;;;;;;14.10;12.73;;;19.70;99.90;;;;;;4973137;28;20557;-59
2021/06/07 12:22:57;;;;;;;14.02;12.52;;;19.40;99.90;;;;;;4981674;28;20186;-58
2021/06/07 12:28:20;;;;;;;13.93;12.45;;;20.00;99.90;;;;;;4980150;28;20548;-67
2021/06/07 12:30:47;;;;;;;13.30;11.93;;;20.20;99.90;;;;;;4980122;28;20189;-65
2021/06/07 12:33:13;;;;;;;13.77;12.45;;;20.20;99.90;;;;;;4978003;28;20686;-64
2021/06/07 12:35:39;;;;;;;14.20;12.80;;;20.40;99.90;;;;;;4978172;28;20249;-64
2021/06/07 12:38:07;;;;;;;13.88;12.57;;;20.40;99.90;;;;;;4977969;28;20229;-68
2021/06/07 12:40:42;;;;;;;13.95;12.65;;;20.50;99.90;;;;;;4983622;28;20338;-65